sensor_id;sensor_type;location;lat;lon;timestamp;pressure;altitude;pressure_sealevel;temperature;humidity
14757;BME280;62446;53.214;10.398;2022-09-09T19:53:13;100788.97;;;13.02;86.96
14757;BME280;62446;53.214;10.398;2022-09-09T19:56:20;100791.72;;;13.31;84.17
14757;BME280;62446;53.214;10.398;2022-09-09T19:59:24;100797.75;;;13.28;82.35
14757;BME280;62446;53.214;10.398;2022-09-09T20:02:28;100796.75;;;13.51;83.38
14757;BME280;62446;53.214;10.398;2022-09-09T20:50:10;100857.09;;;13.03;88.67
14757;BME280;62446;53.214;10.398;2022-09-09T20:53:15;100861.56;;;13.67;85.36
14757;BME280;62446;53.214;10.398;2022-09-09T20:56:18;100864.78;;;13.93;84.68
14757;BME280;62446;53.214;10.398;2022-09-09T20:59:23;100862.16;;;14.03;84.63
14757;BME280;62446;53.214;10.398;2022-09-09T21:02:27;100855.84;;;14.07;83.85
14757;BME280;62446;53.214;10.398;2022-09-09T21:05:32;100885.59;;;14.12;84.20
14757;BME280;62446;53.214;10.398;2022-09-09T21:08:36;100878.03;;;13.90;83.86
14757;BME280;62446;53.214;10.398;2022-09-09T21:11:42;100885.28;;;13.92;84.38
14757;BME280;62446;53.214;10.398;2022-09-09T21:14:46;100892.16;;;14.06;84.38
14757;BME280;62446;53.214;10.398;2022-09-09T21:17:49;100880.56;;;14.09;84.25
14757;BME280;62446;53.214;10.398;2022-09-09T21:20:55;100886.59;;;14.06;83.79
14757;BME280;62446;53.214;10.398;2022-09-09T21:23:59;100874.50;;;14.12;83.69
14757;BME280;62446;53.214;10.398;2022-09-09T21:27:03;100866.28;;;14.17;83.25
14757;BME280;62446;53.214;10.398;2022-09-09T21:30:09;100864.59;;;14.16;83.22
14757;BME280;62446;53.214;10.398;2022-09-09T21:33:13;100849.63;;;14.17;83.17
14757;BME280;62446;53.214;10.398;2022-09-09T21:36:18;100847.44;;;14.19;83.09
14757;BME280;62446;53.214;10.398;2022-09-09T21:39:21;100840.19;;;14.18;83.09
14757;BME280;62446;53.214;10.398;2022-09-09T21:42:25;100836.53;;;14.13;83.10
14757;BME280;62446;53.214;10.398;2022-09-09T21:45:29;100839.06;;;13.97;83.22
14757;BME280;62446;53.214;10.398;2022-09-09T21:48:33;100833.88;;;13.67;83.33
14757;BME280;62446;53.214;10.398;2022-09-09T21:51:38;100829.16;;;13.84;83.46
14757;BME280;62446;53.214;10.398;2022-09-09T21:54:41;100836.88;;;13.99;82.83
14757;BME280;62446;53.214;10.398;2022-09-09T21:57:45;100831.72;;;14.08;83.17
14757;BME280;62446;53.214;10.398;2022-09-09T22:00:49;100840.56;;;14.05;82.53
14757;BME280;62446;53.214;10.398;2022-09-09T22:03:53;100839.94;;;13.81;82.90
14757;BME280;62446;53.214;10.398;2022-09-09T22:06:58;100836.22;;;13.75;83.42
14757;BME280;62446;53.214;10.398;2022-09-09T22:10:02;100825.47;;;13.96;82.76
14757;BME280;62446;53.214;10.398;2022-09-09T22:13:07;100832.84;;;14.07;82.53
14757;BME280;62446;53.214;10.398;2022-09-09T22:16:13;100837.03;;;14.10;82.60
14757;BME280;62446;53.214;10.398;2022-09-09T22:19:17;100837.22;;;14.03;82.11
14757;BME280;62446;53.214;10.398;2022-09-09T22:22:22;100845.19;;;13.99;81.99
14757;BME280;62446;53.214;10.398;2022-09-09T22:25:26;100834.88;;;13.95;81.55
14757;BME280;62446;53.214;10.398;2022-09-09T22:28:30;100832.19;;;14.00;81.37
14757;BME280;62446;53.214;10.398;2022-09-09T22:31:34;100832.19;;;14.00;81.84
14757;BME280;62446;53.214;10.398;2022-09-09T22:34:38;100838.03;;;14.03;81.46
14757;BME280;62446;53.214;10.398;2022-09-09T22:37:43;100828.97;;;14.08;81.67
14757;BME280;62446;53.214;10.398;2022-09-09T22:40:47;100829.47;;;14.05;81.60
14757;BME280;62446;53.214;10.398;2022-09-09T22:43:51;100828.97;;;14.08;81.46
14757;BME280;62446;53.214;10.398;2022-09-09T22:46:55;100836.78;;;14.11;81.22
14757;BME280;62446;53.214;10.398;2022-09-09T22:49:59;100829.97;;;14.02;81.35
14757;BME280;62446;53.214;10.398;2022-09-09T22:53:05;100832.84;;;14.07;81.01
